Time;durP1;ratioP1;P1;durP2;ratioP2;P2;SDS_P1;SDS_P2;PMS_P1;PMS_P2;Temp;Humidity;BMP_temperature;BMP_pressure;BME280_temperature;BME280_humidity;BME280_pressure;Samples;Min_cycle;Max_cycle;Signal;HPM_P1;HPM_P2
2022/10/03 00:02:12;;;;;;;;;;;;;;;21.72;65.38;99729.53;7315015;19;129501;-38
2022/10/03 00:04:59;;;;;;;;;;;;;;;21.74;65.25;99735.47;7311935;19;128925;-37
2022/10/03 00:07:36;;;;;;;;;;;;;;;21.67;64.91;99717.81;7313637;19;129854;-38
2022/10/03 00:10:01;;;;;;;;;;;;;;;21.77;65.35;99732.59;7313923;19;129215;-37
2022/10/03 00:12:50;;;;;;;;;;;;;;;21.73;65.18;99733.78;7313779;19;129149;-38
2022/10/03 00:15:25;;;;;;;;;;;;;;;21.77;64.92;99735.22;7310087;19;129662;-38
2022/10/03 00:18:06;;;;;;;;;;;;;;;21.72;65.67;99737.38;7313826;19;129041;-37
2022/10/03 00:20:44;;;;;;;;;;;;;;;21.73;64.95;99748.69;7314159;19;130125;-37
2022/10/03 00:23:11;;;;;;;;;;;;;;;21.75;65.29;99752.81;7311471;19;130118;-37
2022/10/03 00:25:55;;;;;;;;;;;;;;;21.78;65.43;99751.75;7315306;19;130533;-38
2022/10/03 00:28:39;;;;;;;;;;;;;;;21.75;64.83;99752.81;7314769;19;129975;-38
2022/10/03 00:31:16;;;;;;;;;;;;;;;21.76;64.71;99764.97;7312838;19;130118;-37
2022/10/03 00:33:51;;;;;;;;;;;;;;;21.65;64.79;99746.75;7311322;19;131253;-37
2022/10/03 00:36:37;;;;;;;;;;;;;;;21.70;65.39;99768.09;7310397;19;129055;-38
2022/10/03 00:39:02;;;;;;;;;;;;;;;21.63;65.03;99759.16;7313656;19;129456;-38
2022/10/03 00:41:32;;;;;;;;;;;;;;;21.73;65.56;99770.44;7313373;19;129289;-38
2022/10/03 00:44:00;;;;;;;;;;;;;;;21.74;65.30;99776.50;7311596;19;130184;-38
2022/10/03 00:46:38;;;;;;;;;;;;;;;21.75;65.45;99768.50;7313164;19;129431;-38
2022/10/03 00:49:22;;;;;;;;;;;;;;;21.76;65.54;99770.22;7313205;19;129092;-38
2022/10/03 00:52:00;;;;;;;;;;;;;;;21.76;65.16;99774.59;7312636;19;130780;-37
2022/10/03 00:54:31;;;;;;;;;;;;;;;21.74;65.47;99777.34;7311251;19;130187;-37
2022/10/03 00:56:59;;;;;;;;;;;;;;;21.64;64.72;99765.19;7313153;19;129448;-38
2022/10/03 00:59:42;;;;;;;;;;;;;;;21.74;65.46;99779.97;7310858;19;129799;-38
2022/10/03 01:02:24;;;;;;;;;;;;;;;21.69;65.37;99769.06;7312668;19;128958;-37
2022/10/03 01:05:03;;;;;;;;;;;;;;;21.75;64.82;99778.97;7310272;19;129609;-38
2022/10/03 01:07:29;;;;;;;;;;;;;;;21.75;65.06;99773.75;7313840;19;129304;-38
2022/10/03 01:10:00;;;;;;;;;;;;;;;21.72;64.83;99779.25;7312706;19;129419;-37
2022/10/03 01:12:43;;;;;;;;;;;;;;;21.76;65.41;99779.81;7310750;19;129586;-38
2022/10/03 01:15:15;;;;;;;;;;;;;;;21.73;65.37;99775.66;7310803;19;129924;-38
2022/10/03 01:17:47;;;;;;;;;;;;;;;21.73;64.97;99785.31;7312150;19;129650;-38
2022/10/03 01:20:21;;;;;;;;;;;;;;;21.73;64.91;99773.06;7312781;19;129823;-37
2022/10/03 01:22:55;;;;;;;;;;;;;;;21.72;64.93;99774.03;7312226;19;129443;-37
2022/10/03 01:25:39;;;;;;;;;;;;;;;21.72;65.19;99774.03;7312518;19;129675;-38
2022/10/03 01:31:09;;;;;;;;;;;;;;;21.77;65.45;99777.09;7311930;19;128946;-38
2022/10/03 01:33:39;;;;;;;;;;;;;;;21.79;64.90;99775.19;7310011;19;131008;-38
2022/10/03 01:36:11;;;;;;;;;;;;;;;21.76;65.08;99770.22;7309168;19;131474;-37
2022/10/03 01:38:43;;;;;;;;;;;;;;;21.76;65.18;99775.44;7313475;19;129090;-38
2022/10/03 01:41:12;;;;;;;;;;;;;;;21.76;64.80;99770.22;7311340;19;129019;-38
2022/10/03 01:43:43;;;;;;;;;;;;;;;21.73;65.64;99770.44;7309160;19;131057;-37
2022/10/03 01:46:20;;;;;;;;;;;;;;;21.76;65.27;99775.44;7310297;19;131243;-38
2022/10/03 01:48:55;;;;;;;;;;;;;;;21.76;64.96;99774.59;7311708;19;128915;-37
2022/10/03 01:51:20;;;;;;;;;;;;;;;21.75;64.84;99778.97;7311458;19;129617;-38
2022/10/03 01:53:48;;;;;;;;;;;;;;;21.65;64.69;99757.22;7308658;19;130977;-38
2022/10/03 01:56:16;;;;;;;;;;;;;;;21.71;65.47;99780.22;7309322;19;129766;-38
2022/10/03 01:58:48;;;;;;;;;;;;;;;21.71;65.37;99774.16;7311532;19;129260;-38
2022/10/03 02:01:20;;;;;;;;;;;;;;;21.71;64.98;99777.63;7311171;19;129177;-38
2022/10/03 02:03:53;;;;;;;;;;;;;;;21.73;64.92;99785.31;7308792;19;130079;-38
2022/10/03 02:06:28;;;;;;;;;;;;;;;21.75;64.92;99783.41;7311175;19;129610;-37
2022/10/03 02:09:05;;;;;;;;;;;;;;;21.76;64.82;99780.69;7310914;19;129141;-37
2022/10/03 02:11:33;;;;;;;;;;;;;;;21.73;65.20;99786.13;7317203;19;129503;-37
2022/10/03 02:14:13;;;;;;;;;;;;;;;21.64;65.25;99770.44;7316132;19;129345;-38
2022/10/03 02:16:42;;;;;;;;;;;;;;;21.73;64.84;99788.75;7315770;19;129605;-38
2022/10/03 02:19:26;;;;;;;;;;;;;;;21.73;65.46;99791.38;7318285;19;128961;-38
2022/10/03 02:21:53;;;;;;;;;;;;;;;21.77;65.46;99799.81;7317039;19;129105;-38
2022/10/03 02:24:27;;;;;;;;;;;;;;;21.71;65.23;99797.72;7316333;19;130036;-38
2022/10/03 02:27:12;;;;;;;;;;;;;;;21.74;65.31;99803.50;7316526;19;131371;-38
2022/10/03 02:29:49;;;;;;;;;;;;;;;21.75;65.08;99809.59;7317331;19;128929;-38
2022/10/03 02:32:18;;;;;;;;;;;;;;;21.68;64.90;99795.38;7316626;19;129362;-38
2022/10/03 02:35:02;;;;;;;;;;;;;;;21.77;64.73;99810.28;7315380;19;129163;-37
2022/10/03 02:37:47;;;;;;;;;;;;;;;21.74;65.07;99815.75;7316462;19;129346;-37
2022/10/03 02:40:31;;;;;;;;;;;;;;;21.75;65.66;99820.84;7317465;19;129539;-38
2022/10/03 02:43:08;;;;;;;;;;;;;;;21.74;65.06;99808.75;7317487;19;129616;-37
2022/10/03 02:45:51;;;;;;;;;;;;;;;21.62;64.87;99801.13;7315589;19;129501;-37
2022/10/03 02:48:26;;;;;;;;;;;;;;;21.70;64.99;99815.19;7315109;19;129663;-37
2022/10/03 02:51:09;;;;;;;;;;;;;;;21.72;64.96;99809.81;7318291;19;128909;-37
2022/10/03 02:53:43;;;;;;;;;;;;;;;21.72;65.22;99815.91;7316128;19;129362;-37
2022/10/03 02:56:32;;;;;;;;;;;;;;;21.70;64.94;99815.19;7314314;19;131064;-37
2022/10/03 02:59:18;;;;;;;;;;;;;;;21.69;65.42;99813.56;7317191;19;129275;-38
2022/10/03 03:01:55;;;;;;;;;;;;;;;21.72;64.96;99823.75;7315136;19;130938;-37
2022/10/03 03:04:20;;;;;;;;;;;;;;;21.70;64.85;99828.28;7314497;19;129511;-37
2022/10/03 03:07:10;;;;;;;;;;;;;;;21.62;65.17;99820.28;7315938;19;129713;-38
2022/10/03 03:09:46;;;;;;;;;;;;;;;21.60;65.41;99819.56;7316084;19;130521;-38
2022/10/03 03:12:23;;;;;;;;;;;;;;;21.68;65.10;99835.44;7315658;19;128987;-37
2022/10/03 03:14:49;;;;;;;;;;;;;;;21.74;65.31;99829.69;7314008;19;129463;-38
2022/10/03 03:17:34;;;;;;;;;;;;;;;21.75;65.54;99839.16;7313387;19;130151;-38
2022/10/03 03:20:17;;;;;;;;;;;;;;;21.73;64.88;99842.91;7315800;19;129933;-37
2022/10/03 03:22:43;;;;;;;;;;;;;;;21.72;65.03;99847.28;7315728;19;128879;-37
2022/10/03 03:25:14;;;;;;;;;;;;;;;21.70;65.51;99849.22;7315954;19;129596;-37
2022/10/03 03:27:47;;;;;;;;;;;;;;;21.71;65.24;99842.19;7315498;19;130151;-38
2022/10/03 03:30:15;;;;;;;;;;;;;;;21.73;64.82;99843.69;7316027;19;129387;-38
2022/10/03 03:32:40;;;;;;;;;;;;;;;21.71;65.20;99843.03;7315596;19;129012;-38
2022/10/03 03:35:06;;;;;;;;;;;;;;;21.71;64.81;99845.66;7315018;19;129788;-38
2022/10/03 03:37:43;;;;;;;;;;;;;;;21.69;65.04;99852.81;7315550;19;130678;-37
2022/10/03 03:40:08;;;;;;;;;;;;;;;21.63;65.12;99836.81;7314994;19;129354;-38
2022/10/03 03:42:40;;;;;;;;;;;;;;;21.72;65.22;99857.75;7316498;19;129106;-37
2022/10/03 03:45:18;;;;;;;;;;;;;;;21.73;64.91;99848.13;7314423;19;129147;-38
2022/10/03 03:47:43;;;;;;;;;;;;;;;21.57;65.58;99838.16;7315239;19;130390;-38
2022/10/03 03:50:22;;;;;;;;;;;;;;;21.72;65.33;99852.53;7315648;19;129767;-37
2022/10/03 03:53:20;;;;;;;;;;;;;;;21.72;65.14;99855.16;7314861;19;129633;-37
2022/10/03 03:55:53;;;;;;;;;;;;;;;21.72;65.26;99841.22;7313196;19;128780;-37
2022/10/03 03:58:24;;;;;;;;;;;;;;;21.74;65.36;99850.63;7314409;19;129200;-38
2022/10/03 04:01:02;;;;;;;;;;;;;;;21.66;64.99;99832.16;7315155;19;130144;-38
2022/10/03 04:04:00;;;;;;;;;;;;;;;21.71;65.16;99855.28;7313863;19;129282;-37
2022/10/03 04:06:35;;;;;;;;;;;;;;;21.69;65.35;99852.81;7311551;19;129085;-38
2022/10/03 04:09:00;;;;;;;;;;;;;;;21.70;65.75;99849.22;7313070;19;129852;-38
2022/10/03 04:11:26;;;;;;;;;;;;;;;21.70;64.88;99858.88;7314510;19;130287;-38
2022/10/03 04:14:06;;;;;;;;;;;;;;;21.69;65.00;99859.81;7312902;19;129621;-37
2022/10/03 04:19:37;;;;;;;;;;;;;;;21.67;64.84;99859.13;7313140;19;128959;-38
2022/10/03 04:22:02;;;;;;;;;;;;;;;21.71;65.21;99861.34;7314021;19;130509;-38
2022/10/03 04:24:39;;;;;;;;;;;;;;;21.71;65.67;99860.50;7312588;19;129074;-38
2022/10/03 04:27:13;;;;;;;;;;;;;;;21.72;65.28;99862.16;7314876;19;129715;-38
2022/10/03 04:29:57;;;;;;;;;;;;;;;21.66;65.58;99858.31;7313695;19;129520;-38
2022/10/03 04:32:41;;;;;;;;;;;;;;;21.69;65.39;99863.28;7311398;19;129731;-38
2022/10/03 04:35:15;;;;;;;;;;;;;;;21.70;65.05;99864.91;7312819;19;129895;-38
2022/10/03 04:37:51;;;;;;;;;;;;;;;21.73;65.48;99875.09;7312243;19;129296;-37
2022/10/03 04:40:34;;;;;;;;;;;;;;;21.72;65.10;99873.47;7313984;19;129592;-38
2022/10/03 04:43:03;;;;;;;;;;;;;;;21.68;65.06;99869.44;7311550;19;130245;-38
2022/10/03 04:45:47;;;;;;;;;;;;;;;21.64;65.14;99865.47;7313899;19;129400;-38
2022/10/03 04:48:15;;;;;;;;;;;;;;;21.71;65.36;99879.66;7313815;19;128919;-38
2022/10/03 04:51:02;;;;;;;;;;;;;;;21.74;64.87;99875.94;7312668;19;129771;-37
2022/10/03 04:53:40;;;;;;;;;;;;;;;21.68;64.97;99872.06;7311262;19;130236;-37
2022/10/03 04:56:05;;;;;;;;;;;;;;;21.76;65.66;99874.91;7312820;19;129425;-37
2022/10/03 04:58:40;;;;;;;;;;;;;;;21.72;65.35;99870.84;7313684;19;129271;-37
2022/10/03 05:01:13;;;;;;;;;;;;;;;21.71;65.00;99884.91;7312888;19;129377;-37
2022/10/03 05:03:50;;;;;;;;;;;;;;;21.71;65.38;99884.06;7311948;19;131074;-38
2022/10/03 05:06:22;;;;;;;;;;;;;;;21.71;65.75;99882.28;7312458;19;130762;-37
2022/10/03 05:08:52;;;;;;;;;;;;;;;21.73;65.43;99879.53;7311706;19;130621;-37
2022/10/03 05:11:23;;;;;;;;;;;;;;;21.61;65.23;99864.91;7314189;19;130404;-37
2022/10/03 05:14:07;;;;;;;;;;;;;;;21.71;65.48;99871.81;7309444;19;129116;-38
2022/10/03 05:16:35;;;;;;;;;;;;;;;21.68;65.67;99882.53;7310497;19;129059;-37
2022/10/03 05:19:03;;;;;;;;;;;;;;;21.66;65.66;99879.25;7311724;19;128929;-38
2022/10/03 05:21:31;;;;;;;;;;;;;;;21.68;64.84;99881.72;7311927;19;129540;-38
2022/10/03 05:24:14;;;;;;;;;;;;;;;21.65;65.67;99876.75;7310394;19;130441;-37
2022/10/03 05:26:39;;;;;;;;;;;;;;;21.72;65.55;99889.16;7313498;19;130310;-38
2022/10/03 05:29:10;;;;;;;;;;;;;;;21.72;64.75;99888.31;7312635;19;129781;-38
2022/10/03 05:31:44;;;;;;;;;;;;;;;21.66;65.43;99892.31;7313061;19;129781;-37
2022/10/03 05:34:12;;;;;;;;;;;;;;;21.71;65.72;99900.59;7310437;19;129574;-38
2022/10/03 05:36:40;;;;;;;;;;;;;;;21.72;65.70;99904.03;7309361;19;130767;-38
2022/10/03 05:39:26;;;;;;;;;;;;;;;21.70;65.67;99906.78;7311909;19;128918;-38
2022/10/03 05:41:52;;;;;;;;;;;;;;;21.73;65.27;99903.91;7310935;19;129250;-37
2022/10/03 05:44:18;;;;;;;;;;;;;;;21.74;64.82;99913.41;7310474;19;130443;-37
2022/10/03 05:46:58;;;;;;;;;;;;;;;21.69;65.44;99905.13;7318681;19;129368;-37
2022/10/03 05:49:30;;;;;;;;;;;;;;;21.66;65.07;99908.03;7319530;19;128957;-38
2022/10/03 05:52:02;;;;;;;;;;;;;;;21.71;64.96;99918.09;7318998;19;130503;-37
2022/10/03 05:54:44;;;;;;;;;;;;;;;21.69;65.13;99915.59;7315667;19;129721;-37
2022/10/03 05:57:28;;;;;;;;;;;;;;;21.70;65.10;99924.28;7317596;19;129373;-38
2022/10/03 05:59:58;;;;;;;;;;;;;;;21.67;65.14;99922.75;7318535;19;130325;-37
2022/10/03 06:02:38;;;;;;;;;;;;;;;21.70;65.71;99927.72;7318207;19;130124;-38
2022/10/03 06:05:12;;;;;;;;;;;;;;;21.69;65.61;99930.47;7316005;19;129891;-37
2022/10/03 06:07:52;;;;;;;;;;;;;;;21.70;65.52;99927.72;7315726;19;129379;-37
2022/10/03 06:10:32;;;;;;;;;;;;;;;21.72;65.35;99938.88;7317625;19;129116;-38
2022/10/03 06:13:03;;;;;;;;;;;;;;;21.72;65.41;99938.06;7317469;19;131772;-37
2022/10/03 06:15:53;;;;;;;;;;;;;;;21.70;65.32;99940.81;7318383;19;129774;-37
2022/10/03 06:18:37;;;;;;;;;;;;;;;21.68;65.25;99945.34;7316865;19;129879;-38
2022/10/03 06:21:22;;;;;;;;;;;;;;;21.61;65.42;99928.53;7317832;19;128872;-37
2022/10/03 06:23:57;;;;;;;;;;;;;;;21.68;65.02;99947.94;7316017;19;130476;-37
2022/10/03 06:26:35;;;;;;;;;;;;;;;21.71;65.33;99947.72;7317270;19;130813;-37
2022/10/03 06:29:01;;;;;;;;;;;;;;;21.75;64.88;99946.47;7312610;19;128869;-38
2022/10/03 06:31:41;;;;;;;;;;;;;;;21.73;64.83;99958.84;7317555;19;130919;-38
2022/10/03 06:34:16;;;;;;;;;;;;;;;21.71;65.48;99952.09;7315724;19;129143;-37
2022/10/03 06:36:54;;;;;;;;;;;;;;;21.68;65.41;99960.22;7315165;19;130287;-37
2022/10/03 06:39:31;;;;;;;;;;;;;;;21.70;65.00;99960.94;7316359;19;128760;-38
2022/10/03 06:42:15;;;;;;;;;;;;;;;21.68;65.38;99973.31;7316412;19;128976;-38
2022/10/03 06:44:54;;;;;;;;;;;;;;;21.68;65.60;99962.84;7314297;19;130323;-38
2022/10/03 06:47:22;;;;;;;;;;;;;;;21.71;65.76;99973.88;7316179;19;130200;-38
2022/10/03 06:49:56;;;;;;;;;;;;;;;21.66;65.25;99973.44;7316131;19;129018;-38
2022/10/03 06:52:37;;;;;;;;;;;;;;;21.72;64.85;99977.31;7315836;19;129421;-38
2022/10/03 06:55:18;;;;;;;;;;;;;;;21.65;64.92;99984.03;7314585;19;129461;-38
2022/10/03 06:58:02;;;;;;;;;;;;;;;21.69;64.97;99988.03;7311031;19;130822;-38
2022/10/03 07:00:27;;;;;;;;;;;;;;;21.70;65.63;99990.53;7313724;19;129268;-38
2022/10/03 07:02:53;;;;;;;;;;;;;;;21.67;65.36;99996.03;7306431;19;129326;-38
2022/10/03 07:05:37;;;;;;;;;;;;;;;21.70;65.56;99989.72;7315671;19;129560;-38
2022/10/03 07:08:06;;;;;;;;;;;;;;;21.70;65.61;99992.34;7314927;19;130011;-37
2022/10/03 07:10:31;;;;;;;;;;;;;;;21.70;65.34;99992.34;7316010;19;128847;-38
2022/10/03 07:13:08;;;;;;;;;;;;;;;21.71;65.70;99992.19;7312259;19;129076;-37
2022/10/03 07:15:48;;;;;;;;;;;;;;;21.69;65.26;99996.72;7314050;19;131026;-37
2022/10/03 07:18:32;;;;;;;;;;;;;;;21.70;65.20;99993.13;7314416;19;130691;-37
2022/10/03 07:20:57;;;;;;;;;;;;;;;21.73;65.25;99982.41;7315194;19;129301;-38
2022/10/03 07:23:41;;;;;;;;;;;;;;;21.72;65.50;99993.00;7313745;19;129423;-38
2022/10/03 07:26:12;;;;;;;;;;;;;;;21.69;65.50;99994.09;7316990;19;130600;-38
2022/10/03 07:28:55;;;;;;;;;;;;;;;21.68;65.32;99992.44;7312808;19;130836;-38
2022/10/03 07:31:21;;;;;;;;;;;;;;;21.69;64.96;99999.34;7316709;19;129810;-37
2022/10/03 07:33:49;;;;;;;;;;;;;;;21.66;65.52;99989.13;7313366;19;130364;-38
2022/10/03 07:39:50;;;;;;;;;;;;;;;21.68;65.18;100002.91;7314918;19;129792;-38
2022/10/03 07:42:35;;;;;;;;;;;;;;;21.66;65.12;100010.06;7313514;19;129266;-37
2022/10/03 07:45:19;;;;;;;;;;;;;;;21.63;64.72;100012.97;7311084;19;129081;-37
2022/10/03 07:48:03;;;;;;;;;;;;;;;21.67;65.36;100023.97;7314354;19;129311;-37
2022/10/03 07:50:39;;;;;;;;;;;;;;;21.68;65.31;100018.59;7315368;19;130439;-38
2022/10/03 07:53:27;;;;;;;;;;;;;;;21.67;65.06;100021.34;7313683;19;129206;-37
2022/10/03 07:56:04;;;;;;;;;;;;;;;21.71;64.97;100028.84;7313649;19;129699;-38
2022/10/03 07:58:29;;;;;;;;;;;;;;;21.73;64.90;100032.13;7314582;19;130121;-38
2022/10/03 08:01:01;;;;;;;;;;;;;;;21.73;64.91;100036.56;7313740;19;130126;-38
2022/10/03 08:03:50;;;;;;;;;;;;;;;21.71;65.04;100025.38;7313861;19;129332;-38
2022/10/03 08:06:32;;;;;;;;;;;;;;;21.70;65.46;100032.41;7313717;19;130313;-38
2022/10/03 08:09:16;;;;;;;;;;;;;;;21.68;65.13;100034.31;7314466;19;130734;-37
2022/10/03 08:12:02;;;;;;;;;;;;;;;21.68;65.13;100033.50;7312457;19;129625;-38
2022/10/03 08:14:35;;;;;;;;;;;;;;;21.67;65.33;100032.66;7310889;19;129024;-37
2022/10/03 08:17:03;;;;;;;;;;;;;;;21.66;65.21;100036.25;7312608;19;129070;-38
2022/10/03 08:20:00;;;;;;;;;;;;;;;21.66;65.33;100040.63;7314905;19;129234;-38
2022/10/03 08:22:41;;;;;;;;;;;;;;;21.66;65.19;100031.00;7309772;19;129191;-37
2022/10/03 08:25:07;;;;;;;;;;;;;;;21.69;64.98;100041.22;7313714;19;130468;-37
2022/10/03 08:27:50;;;;;;;;;;;;;;;21.65;65.06;100031.16;7313399;19;130460;-38
2022/10/03 08:30:35;;;;;;;;;;;;;;;21.70;65.38;100036.81;7313725;19;130370;-38
2022/10/03 08:33:19;;;;;;;;;;;;;;;21.68;65.36;100039.53;7312958;19;129207;-38
2022/10/03 08:35:47;;;;;;;;;;;;;;;21.68;64.83;100034.31;7314195;19;129074;-38
2022/10/03 08:38:18;;;;;;;;;;;;;;;21.60;65.52;100031.50;7313975;19;129206;-37
2022/10/03 08:40:58;;;;;;;;;;;;;;;21.67;65.54;100045.75;7313837;19;129179;-38
2022/10/03 08:43:39;;;;;;;;;;;;;;;21.70;65.77;100044.66;7312486;19;130210;-38
2022/10/03 08:46:07;;;;;;;;;;;;;;;21.66;65.57;100040.63;7310610;19;129625;-37
2022/10/03 08:48:32;;;;;;;;;;;;;;;21.65;65.28;100045.03;7310640;19;130217;-37
2022/10/03 08:51:04;;;;;;;;;;;;;;;21.70;65.17;100042.84;7310450;19;132528;-38
2022/10/03 08:53:38;;;;;;;;;;;;;;;21.69;65.06;100040.38;7311808;19;130646;-37
2022/10/03 08:56:13;;;;;;;;;;;;;;;21.70;64.92;100048.09;7312192;19;129347;-38
2022/10/03 08:59:00;;;;;;;;;;;;;;;21.70;65.70;100057.75;7310405;19;131475;-37
2022/10/03 09:01:44;;;;;;;;;;;;;;;21.69;65.40;100043.84;7311094;19;130194;-37
2022/10/03 09:04:18;;;;;;;;;;;;;;;21.71;65.07;100054.16;7309782;19;130170;-37
2022/10/03 09:07:02;;;;;;;;;;;;;;;21.69;65.30;100046.44;7312683;19;129197;-37
2022/10/03 09:09:57;;;;;;;;;;;;;;;21.72;64.97;100048.81;7311567;19;129127;-38
2022/10/03 09:12:30;;;;;;;;;;;;;;;21.70;64.76;100053.31;7309623;19;130840;-38
2022/10/03 09:15:13;;;;;;;;;;;;;;;21.60;65.25;100038.56;7309010;19;130244;-38
2022/10/03 09:18:05;;;;;;;;;;;;;;;21.67;65.06;100050.97;7310575;19;129516;-37
2022/10/03 09:20:37;;;;;;;;;;;;;;;21.59;65.21;100029.84;7308224;19;129249;-38
2022/10/03 09:23:02;;;;;;;;;;;;;;;21.66;65.35;100051.94;7308868;19;131037;-37
2022/10/03 09:25:28;;;;;;;;;;;;;;;21.68;65.41;100049.19;7310116;19;129194;-38
2022/10/03 09:27:56;;;;;;;;;;;;;;;21.67;64.77;100048.34;7309782;19;129289;-38
2022/10/03 09:30:40;;;;;;;;;;;;;;;21.71;65.56;100044.53;7313166;19;129203;-38
2022/10/03 09:33:24;;;;;;;;;;;;;;;21.67;65.45;100042.28;7308363;19;129209;-38
2022/10/03 09:35:52;;;;;;;;;;;;;;;21.66;65.18;100041.47;7312515;19;129813;-37
2022/10/03 09:38:20;;;;;;;;;;;;;;;21.68;64.92;100041.34;7310770;19;130286;-37
2022/10/03 09:41:04;;;;;;;;;;;;;;;21.68;65.46;100038.72;7312141;19;130200;-37
2022/10/03 09:43:29;;;;;;;;;;;;;;;21.68;65.35;100044.78;7307816;19;129328;-38
2022/10/03 09:46:13;;;;;;;;;;;;;;;21.64;65.48;100040.78;7311307;19;129827;-37
2022/10/03 09:48:38;;;;;;;;;;;;;;;21.67;65.16;100043.13;7311246;19;129995;-38
2022/10/03 09:51:10;;;;;;;;;;;;;;;21.71;65.70;100051.56;7312629;19;130560;-38
2022/10/03 09:53:41;;;;;;;;;;;;;;;21.70;65.73;100042.84;7309210;19;130028;-38
2022/10/03 09:56:06;;;;;;;;;;;;;;;21.71;65.50;100051.56;7309010;19;130116;-37
2022/10/03 09:58:50;;;;;;;;;;;;;;;21.70;65.69;100045.47;7310188;19;129087;-37
2022/10/03 10:01:21;;;;;;;;;;;;;;;21.72;65.79;100050.56;7309482;19;129569;-38
2022/10/03 10:04:07;;;;;;;;;;;;;;;21.72;65.80;100050.56;7309603;19;131108;-37
2022/10/03 10:06:51;;;;;;;;;;;;;;;21.72;64.74;100056.66;7309949;19;130309;-37
2022/10/03 10:09:25;;;;;;;;;;;;;;;21.68;65.32;100065.72;7310301;19;129119;-37
2022/10/03 10:11:58;;;;;;;;;;;;;;;21.73;64.93;100055.69;7311175;19;128843;-37
2022/10/03 10:14:23;;;;;;;;;;;;;;;21.73;65.44;100058.28;7307567;19;130112;-38
2022/10/03 10:17:00;;;;;;;;;;;;;;;21.73;65.47;100052.25;7309384;19;129679;-37
2022/10/03 10:19:34;;;;;;;;;;;;;;;21.70;65.12;100055.94;7311177;19;130552;-37
2022/10/03 10:22:23;;;;;;;;;;;;;;;21.69;65.27;100059.53;7310344;19;129124;-38
2022/10/03 10:24:51;;;;;;;;;;;;;;;21.73;64.76;100058.28;7304551;19;130145;-37
2022/10/03 10:27:16;;;;;;;;;;;;;;;21.70;65.57;100055.94;7311422;19;129595;-38
2022/10/03 10:30:00;;;;;;;;;;;;;;;21.69;65.14;100048.22;7308032;19;129508;-38
2022/10/03 10:32:44;;;;;;;;;;;;;;;21.70;64.77;100053.31;7313614;19;128983;-38
2022/10/03 10:35:09;;;;;;;;;;;;;;;21.70;64.97;100048.09;7313643;19;131072;-37
2022/10/03 10:37:37;;;;;;;;;;;;;;;21.70;65.24;100057.75;7305199;19;130236;-38
2022/10/03 10:40:08;;;;;;;;;;;;;;;21.69;65.30;100041.22;7310400;19;129379;-38
2022/10/03 10:42:53;;;;;;;;;;;;;;;21.68;65.00;100043.97;7316454;19;129781;-38
2022/10/03 10:45:24;;;;;;;;;;;;;;;21.70;64.82;100032.41;7316661;19;129141;-37
2022/10/03 10:47:58;;;;;;;;;;;;;;;21.58;65.17;100030.84;7314608;19;130237;-37
2022/10/03 10:50:23;;;;;;;;;;;;;;;21.64;65.17;100048.63;7314244;19;130451;-37
2022/10/03 10:53:07;;;;;;;;;;;;;;;21.65;65.62;100045.03;7315369;19;129007;-38
2022/10/03 10:55:35;;;;;;;;;;;;;;;21.65;65.13;100045.03;7314610;19;130097;-38
2022/10/03 10:58:19;;;;;;;;;;;;;;;21.66;65.28;100046.72;7313176;19;129384;-37
2022/10/03 11:00:47;;;;;;;;;;;;;;;21.67;65.27;100052.75;7315845;19;129582;-38
2022/10/03 11:03:31;;;;;;;;;;;;;;;21.67;64.84;100050.13;7311309;19;129386;-37
2022/10/03 11:06:16;;;;;;;;;;;;;;;21.68;65.21;100055.22;7312690;19;130814;-37
2022/10/03 11:09:13;;;;;;;;;;;;;;;21.71;65.02;100052.38;7313249;19;130101;-37
2022/10/03 11:11:48;;;;;;;;;;;;;;;21.66;65.00;100044.09;7308951;19;130004;-38
2022/10/03 11:14:28;;;;;;;;;;;;;;;21.62;65.26;100044.47;7310935;19;130056;-38
2022/10/03 11:16:54;;;;;;;;;;;;;;;21.69;65.65;100051.69;7313081;19;130129;-38
2022/10/03 11:19:31;;;;;;;;;;;;;;;21.71;65.50;100054.16;7312172;19;129447;-38
2022/10/03 11:21:59;;;;;;;;;;;;;;;21.64;64.70;100032.09;7314493;19;129532;-37
2022/10/03 11:24:24;;;;;;;;;;;;;;;21.69;64.87;100054.28;7311348;19;130042;-38
2022/10/03 11:26:53;;;;;;;;;;;;;;;21.69;65.16;100048.22;7314350;19;130258;-38
2022/10/03 11:29:38;;;;;;;;;;;;;;;21.65;65.26;100050.25;7311985;19;131053;-38
2022/10/03 11:32:18;;;;;;;;;;;;;;;21.69;65.24;100056.91;7313331;19;129671;-37
2022/10/03 11:34:46;;;;;;;;;;;;;;;21.67;65.09;100053.59;7311294;19;129595;-37
2022/10/03 11:37:31;;;;;;;;;;;;;;;21.68;65.30;100055.22;7309381;19;129841;-38
2022/10/03 11:40:15;;;;;;;;;;;;;;;21.69;65.21;100062.16;7308776;19;129416;-38
2022/10/03 11:42:41;;;;;;;;;;;;;;;21.68;65.65;100055.22;7310953;19;129341;-38
2022/10/03 11:45:18;;;;;;;;;;;;;;;21.69;65.18;100054.28;7311409;19;129719;-37
2022/10/03 11:47:59;;;;;;;;;;;;;;;21.69;65.13;100053.47;7312129;19;129707;-37
2022/10/03 11:50:44;;;;;;;;;;;;;;;21.68;65.12;100055.22;7313094;19;131101;-37
2022/10/03 11:53:14;;;;;;;;;;;;;;;21.67;65.31;100050.13;7312928;19;129044;-38
2022/10/03 11:56:18;;;;;;;;;;;;;;;21.71;65.31;100060.25;7313932;19;130178;-37
2022/10/03 11:58:52;;;;;;;;;;;;;;;21.65;65.55;100050.25;7308693;19;130420;-38
2022/10/03 12:01:36;;;;;;;;;;;;;;;21.72;65.67;100063.66;7308769;19;130039;-38
2022/10/03 12:04:19;;;;;;;;;;;;;;;21.66;64.76;100051.94;7308655;19;129624;-38
2022/10/03 12:09:47;;;;;;;;;;;;;;;21.70;64.90;100052.53;7312293;19;128912;-38
2022/10/03 12:12:12;;;;;;;;;;;;;;;21.69;64.90;100056.91;7313080;19;129637;-38
2022/10/03 12:14:45;;;;;;;;;;;;;;;21.70;64.89;100053.31;7310320;19;129722;-38
2022/10/03 12:17:13;;;;;;;;;;;;;;;21.69;65.18;100054.28;7310934;19;130008;-38
2022/10/03 12:19:54;;;;;;;;;;;;;;;21.62;65.29;100052.31;7311773;19;129915;-38
2022/10/03 12:22:34;;;;;;;;;;;;;;;21.67;65.28;100064.06;7310325;19;130171;-37
2022/10/03 12:25:23;;;;;;;;;;;;;;;21.66;65.33;100065.03;7309777;19;129261;-38
2022/10/03 12:27:48;;;;;;;;;;;;;;;21.61;64.98;100059.34;7309837;19;128985;-37
2022/10/03 12:30:15;;;;;;;;;;;;;;;21.71;64.97;100055.00;7311817;19;130384;-37
2022/10/03 12:32:48;;;;;;;;;;;;;;;21.71;65.48;100059.41;7309657;19;130469;-37
2022/10/03 12:35:16;;;;;;;;;;;;;;;21.71;65.48;100052.38;7311070;19;131264;-38
2022/10/03 12:38:17;;;;;;;;;;;;;;;21.60;65.76;100043.78;7310462;19;129538;-37
2022/10/03 12:40:48;;;;;;;;;;;;;;;21.58;65.29;100049.16;7307060;19;131176;-38
2022/10/03 12:43:23;;;;;;;;;;;;;;;21.67;65.43;100068.44;7310270;19;129317;-37
2022/10/03 12:45:59;;;;;;;;;;;;;;;21.68;65.51;100060.47;7311514;19;130533;-38
2022/10/03 12:48:27;;;;;;;;;;;;;;;21.69;65.74;100066.53;7312874;19;129165;-38
2022/10/03 12:50:55;;;;;;;;;;;;;;;21.69;65.26;100067.38;7312441;19;131219;-38
2022/10/03 12:53:34;;;;;;;;;;;;;;;21.71;65.72;100075.09;7311306;19;130397;-38
2022/10/03 12:56:07;;;;;;;;;;;;;;;21.73;65.34;100068.75;7311810;19;129709;-37
2022/10/03 12:58:35;;;;;;;;;;;;;;;21.68;64.78;100068.31;7310076;19;129435;-38
2022/10/03 13:01:19;;;;;;;;;;;;;;;21.62;65.31;100050.53;7308534;19;130749;-37
2022/10/03 13:03:57;;;;;;;;;;;;;;;21.68;65.41;100072.75;7312121;19;129268;-38
2022/10/03 13:06:32;;;;;;;;;;;;;;;21.72;64.86;100061.88;7308792;19;129801;-37
2022/10/03 13:09:07;;;;;;;;;;;;;;;21.71;65.32;100056.78;7312389;19;130983;-38
2022/10/03 13:11:49;;;;;;;;;;;;;;;21.66;65.71;100056.34;7311800;19;130146;-38
2022/10/03 13:14:18;;;;;;;;;;;;;;;21.71;65.37;100059.41;7305087;19;129125;-38
2022/10/03 13:16:43;;;;;;;;;;;;;;;21.70;65.41;100058.56;7310927;19;128917;-37
2022/10/03 13:19:34;;;;;;;;;;;;;;;21.71;65.22;100060.25;7309399;19;129612;-38
2022/10/03 13:22:11;;;;;;;;;;;;;;;21.62;65.11;100040.06;7311126;19;130605;-38
2022/10/03 13:24:55;;;;;;;;;;;;;;;21.71;65.59;100056.78;7311199;19;130480;-38
2022/10/03 13:27:29;;;;;;;;;;;;;;;21.69;65.79;100056.91;7309635;19;129116;-37
2022/10/03 13:30:13;;;;;;;;;;;;;;;21.67;65.49;100053.59;7312490;19;129531;-38